Time;durP1;ratioP1;P1;durP2;ratioP2;P2;SDS_P1;SDS_P2;PMS_P1;PMS_P2;Temp;Humidity;BMP_temperature;BMP_pressure;BME280_temperature;BME280_humidity;BME280_pressure;Samples;Min_cycle;Max_cycle;Signal;HPM_P1;HPM_P2
2022/12/07 00:00:53;;;;;;;0.75;0.70;;;;;;;5.99;100.00;100723.69;7396076;19;20018;-58
2022/12/07 00:03:19;;;;;;;5.63;2.20;;;;;;;5.81;100.00;100723.19;7395830;19;20014;-58
2022/12/07 00:05:45;;;;;;;2.78;0.68;;;;;;;5.96;100.00;100722.53;7396627;19;20554;-58
2022/12/07 00:08:12;;;;;;;1.63;0.38;;;;;;;5.66;100.00;100722.66;7396890;19;20014;-58
2022/12/07 00:10:38;;;;;;;0.70;0.70;;;;;;;5.16;100.00;100721.88;7395072;19;20019;-58
2022/12/07 00:13:04;;;;;;;2.10;1.17;;;;;;;5.28;100.00;100721.31;7395238;19;20548;-58
2022/12/07 00:15:30;;;;;;;1.17;0.47;;;;;;;5.27;100.00;100714.22;7399853;19;20006;-58
2022/12/07 00:17:56;;;;;;;0.68;0.68;;;;;;;5.65;100.00;100715.56;7395265;19;20010;-58
2022/12/07 00:20:22;;;;;;;0.30;0.30;;;;;;;5.15;100.00;100712.84;7397465;19;20497;-58
2022/12/07 00:22:48;;;;;;;0.47;0.47;;;;;;;5.04;100.00;100714.97;7396907;19;20018;-58
2022/12/07 00:25:15;;;;;;;4.50;0.73;;;;;;;5.12;100.00;100710.13;7397046;19;20037;-58
2022/12/07 00:27:41;;;;;;;0.75;0.65;;;;;;;5.42;100.00;100710.03;7396750;19;20023;-58
2022/12/07 00:30:07;;;;;;;2.83;0.85;;;;;;;5.37;100.00;100707.78;7397389;19;20014;-58
2022/12/07 00:32:33;;;;;;;0.52;0.52;;;;;;;5.81;100.00;100723.19;7395154;19;20010;-58
2022/12/07 00:34:59;;;;;;;0.80;0.80;;;;;;;5.79;100.00;100720.84;7394921;19;20514;-58
2022/12/07 00:37:26;;;;;;;0.10;0.03;;;;;;;5.63;100.00;100717.19;7393330;19;20014;-58
2022/12/07 00:39:52;;;;;;;0.52;0.10;;;;;;;5.72;100.00;100709.91;7399710;19;20070;-58
2022/12/07 00:42:18;;;;;;;2.20;0.80;;;;;;;5.75;100.00;100714.59;7395284;19;20014;-58
2022/12/07 00:44:44;;;;;;;3.30;1.15;;;;;;;5.97;100.00;100710.28;7394796;19;20015;-58
2022/12/07 00:47:10;;;;;;;0.38;0.22;;;;;;;5.86;100.00;100704.16;7394984;19;20427;-58
2022/12/07 00:49:37;;;;;;;0.30;0.30;;;;;;;6.16;100.00;100716.25;7397248;19;20037;-58
2022/12/07 00:52:03;;;;;;;0.20;0.20;;;;;;;5.81;100.00;100712.13;7395479;19;20023;-58
2022/12/07 00:54:29;;;;;;;2.72;0.70;;;;;;;5.81;100.00;100701.06;7395377;19;20022;-58
2022/12/07 00:56:55;;;;;;;0.50;0.50;;;;;;;6.44;100.00;100705.41;7394382;19;20019;-58
2022/12/07 00:59:21;;;;;;;1.55;0.95;;;;;;;6.85;100.00;100693.84;7398073;19;20074;-58
2022/12/07 01:01:48;;;;;;;2.08;1.00;;;;;;;6.33;100.00;100692.97;7393528;19;20010;-58
2022/12/07 01:04:14;;;;;;;0.50;0.50;;;;;;;6.24;100.00;100695.56;7391074;19;20015;-58
2022/12/07 01:06:40;;;;;;;7.88;0.98;;;;;;;5.98;100.00;100699.97;7393939;19;20023;-58
2022/12/07 01:09:06;;;;;;;0.93;0.93;;;;;;;5.57;100.00;100708.59;7396869;19;21001;-58
2022/12/07 01:11:33;;;;;;;2.95;0.90;;;;;;;5.44;100.00;100707.63;7393689;19;20018;-58
2022/12/07 01:14:00;;;;;;;4.32;1.05;;;;;;;5.14;100.00;100702.19;7395456;19;20018;-58
2022/12/07 01:16:29;;;;;;;0.50;0.50;;;;;;;5.64;100.00;100700.19;7392731;19;20019;-58
2022/12/07 01:18:57;;;;;;;0.98;0.98;;;;;;;6.03;100.00;100697.53;7394624;19;20010;-58
2022/12/07 01:21:30;;;;;;;1.83;1.17;;;;;;;6.61;100.00;100697.94;7392692;19;20019;-58
2022/12/07 01:23:59;;;;;;;0.70;0.40;;;;;;;6.50;100.00;100705.66;7393361;19;20025;-58
2022/12/07 01:26:26;;;;;;;0.60;0.60;;;;;;;5.69;100.00;100707.22;7392994;19;20620;-58
2022/12/07 01:28:54;;;;;;;1.40;1.30;;;;;;;5.97;100.00;100699.22;7396127;19;20006;-58
2022/12/07 01:31:23;;;;;;;0.63;0.63;;;;;;;6.06;100.00;100702.19;7393888;19;20324;-58
2022/12/07 01:33:52;;;;;;;3.95;0.68;;;;;;;6.13;100.00;100701.28;7393739;19;20022;-58
2022/12/07 01:36:21;;;;;;;0.60;0.50;;;;;;;6.52;100.00;100690.19;7392780;19;20070;-57
2022/12/07 01:38:52;;;;;;;0.85;0.85;;;;;;;6.72;100.00;100701.25;7394766;19;20006;-58
2022/12/07 01:41:19;;;;;;;1.30;0.77;;;;;;;6.29;100.00;100703.34;7393617;19;20017;-57
2022/12/07 01:44:10;;;;;;;0.52;0.52;;;;;;;5.07;100.00;100696.78;7393665;19;20014;-58
2022/12/07 01:46:36;;;;;;;1.48;0.73;;;;;;;5.54;100.00;100692.88;7393002;19;20025;-58
2022/12/07 01:49:10;;;;;;;1.02;1.02;;;;;;;5.49;100.00;100696.09;7394906;19;20015;-58
2022/12/07 01:51:38;;;;;;;0.65;0.40;;;;;;;5.44;100.00;100690.28;7392849;19;20014;-58
2022/12/07 01:54:05;;;;;;;2.38;1.55;;;;;;;5.30;100.00;100691.31;7393217;19;20007;-57
2022/12/07 01:56:32;;;;;;;1.08;0.95;;;;;;;5.97;100.00;100688.16;7391054;19;20343;-58
2022/12/07 01:59:00;;;;;;;1.67;0.47;;;;;;;5.90;100.00;100677.25;7393791;19;20052;-58
2022/12/07 02:01:26;;;;;;;1.75;1.65;;;;;;;5.38;100.00;100684.44;7391431;19;20036;-58
2022/12/07 02:03:53;;;;;;;1.20;0.90;;;;;;;5.44;100.00;100688.28;7392305;19;20048;-58
2022/12/07 02:06:24;;;;;;;0.93;0.93;;;;;;;5.97;100.00;100676.31;7393152;19;20086;-58
2022/12/07 02:08:50;;;;;;;2.58;0.68;;;;;;;5.47;100.00;100684.69;7394606;19;20040;-58
2022/12/07 02:11:17;;;;;;;0.22;0.22;;;;;;;5.63;100.00;100692.34;7393105;19;20010;-58
2022/12/07 02:13:44;;;;;;;0.85;0.38;;;;;;;4.91;100.00;100689.16;7392631;19;20015;-58
2022/12/07 02:16:43;;;;;;;0.30;0.30;;;;;;;5.16;100.00;100688.75;7389812;19;20358;-58
2022/12/07 02:19:43;;;;;;;0.43;0.43;;;;;;;5.27;100.00;100676.34;7395517;19;20014;-57
2022/12/07 02:22:21;;;;;;;0.95;0.88;;;;;;;5.49;100.00;100685.06;7391429;19;20003;-58
2022/12/07 02:25:24;;;;;;;4.28;1.27;;;;;;;5.58;100.00;100681.75;7392499;19;20066;-57
2022/12/07 02:27:56;;;;;;;12.82;2.20;;;;;;;5.54;100.00;100675.50;7393758;19;20511;-58
2022/12/07 02:30:28;;;;;;;0.40;0.40;;;;;;;5.49;100.00;100676.78;7391790;19;20779;-57
2022/12/07 02:33:05;;;;;;;0.70;0.70;;;;;;;5.92;100.00;100674.84;7390076;19;20018;-58
2022/12/07 02:35:45;;;;;;;4.75;1.73;;;;;;;4.76;100.00;100673.22;7391856;19;20024;-58
2022/12/07 02:38:16;;;;;;;0.40;0.40;;;;;;;4.78;100.00;100668.06;7387762;19;20010;-58
2022/12/07 02:40:57;;;;;;;0.30;0.25;;;;;;;5.49;100.00;100668.47;7391117;19;20014;-57
2022/12/07 02:43:36;;;;;;;1.38;0.70;;;;;;;5.73;100.00;100677.53;7389150;19;20007;-58
2022/12/07 02:46:14;;;;;;;0.93;0.93;;;;;;;5.09;100.00;100677.84;7389577;19;20023;-57
2022/12/07 02:48:42;;;;;;;1.67;1.10;;;;;;;5.40;100.00;100671.00;7388395;19;20089;-57
2022/12/07 02:51:09;;;;;;;0.60;0.60;;;;;;;4.81;100.00;100659.72;7388460;19;20011;-57
2022/12/07 02:53:38;;;;;;;2.97;0.88;;;;;;;4.28;100.00;100662.44;7389252;19;20019;-57
2022/12/07 02:56:08;;;;;;;0.75;0.75;;;;;;;4.21;100.00;100657.00;7389082;19;20028;-57
2022/12/07 02:58:56;;;;;;;0.85;0.70;;;;;;;4.91;100.00;100655.25;7394634;19;20011;-57
2022/12/07 03:02:06;;;;;;;1.33;0.93;;;;;;;4.96;100.00;100663.06;7391501;19;20070;-57
2022/12/07 03:04:52;;;;;;;4.85;1.17;;;;;;;5.14;100.00;100666.31;7390885;19;20328;-57
2022/12/07 03:07:33;;;;;;;0.75;0.75;;;;;;;5.77;100.00;100662.44;7389845;19;20586;-57
2022/12/07 03:10:08;;;;;;;1.50;0.80;;;;;;;5.75;100.00;100659.34;7395542;19;20007;-57
2022/12/07 03:12:53;;;;;;;1.95;1.55;;;;;;;5.73;100.00;100656.22;7390250;19;20010;-57
2022/12/07 03:15:39;;;;;;;1.50;1.00;;;;;;;6.56;100.00;100657.69;7394179;19;20022;-57
2022/12/07 03:18:07;;;;;;;0.75;0.52;;;;;;;6.27;100.00;100653.19;7388850;19;20020;-57
2022/12/07 03:20:36;;;;;;;2.72;1.23;;;;;;;5.84;100.00;100653.28;7387342;19;20067;-57
2022/12/07 03:23:06;;;;;;;1.27;0.73;;;;;;;5.82;100.00;100648.16;7387915;19;20018;-57
2022/12/07 03:25:34;;;;;;;0.75;0.75;;;;;;;5.95;100.00;100640.81;7389579;19;20026;-57
2022/12/07 03:28:04;;;;;;;1.08;0.68;;;;;;;5.91;100.00;100642.84;7391941;19;20078;-57
2022/12/07 03:30:38;;;;;;;0.40;0.40;;;;;;;6.04;100.00;100643.03;7390429;19;20013;-57
2022/12/07 03:33:13;;;;;;;0.40;0.40;;;;;;;6.09;100.00;100643.28;7390020;19;20470;-57
2022/12/07 03:35:59;;;;;;;1.00;1.00;;;;;;;5.59;100.00;100639.88;7389556;19;20549;-57
2022/12/07 03:38:44;;;;;;;0.50;0.50;;;;;;;5.65;100.00;100654.00;7390499;19;20472;-57
2022/12/07 03:41:23;;;;;;;1.67;1.40;;;;;;;5.50;100.00;100641.66;7389499;19;20014;-57
2022/12/07 03:43:50;;;;;;;0.40;0.40;;;;;;;5.66;100.00;100633.44;7388257;19;20036;-57
2022/12/07 03:46:23;;;;;;;0.82;0.73;;;;;;;5.97;100.00;100638.41;7388351;19;20533;-57
2022/12/07 03:49:02;;;;;;;0.82;0.82;;;;;;;6.07;100.00;100631.88;7391553;19;20017;-57
2022/12/07 03:51:38;;;;;;;2.30;1.10;;;;;;;6.27;100.00;100639.38;7389610;19;20871;-57
2022/12/07 03:54:11;;;;;;;0.57;0.45;;;;;;;5.85;100.00;100636.25;7388294;19;20014;-57
2022/12/07 03:56:38;;;;;;;0.93;0.93;;;;;;;5.80;100.00;100639.50;7388681;19;20497;-57
2022/12/07 03:59:04;;;;;;;0.75;0.75;;;;;;;5.79;100.00;100637.94;7391012;19;20369;-57
2022/12/07 04:01:31;;;;;;;1.75;1.38;;;;;;;5.77;100.00;100637.56;7389123;19;20368;-57
2022/12/07 04:03:57;;;;;;;1.45;1.35;;;;;;;5.90;100.00;100638.53;7388407;19;20788;-57
2022/12/07 04:06:24;;;;;;;1.17;0.85;;;;;;;6.24;100.00;100634.72;7387787;19;20013;-57
2022/12/07 04:08:50;;;;;;;1.60;1.30;;;;;;;7.29;100.00;100626.72;7390641;19;20031;-57
2022/12/07 04:11:16;;;;;;;0.90;0.55;;;;;;;5.78;100.00;100625.31;7389104;19;20010;-57
2022/12/07 04:16:45;;;;;;;6.68;1.23;;;;;;;4.81;100.00;100621.09;7383664;19;20023;-57
2022/12/07 04:19:11;;;;;;;0.68;0.68;;;;;;;4.44;100.00;100624.78;7390231;19;20420;-57
2022/12/07 04:21:38;;;;;;;7.70;1.55;;;;;;;4.49;100.00;100624.31;7386315;19;20014;-57
2022/12/07 04:24:04;;;;;;;2.83;0.70;;;;;;;4.73;100.00;100621.59;7388219;19;20010;-57
2022/12/07 04:26:31;;;;;;;2.42;1.15;;;;;;;4.85;100.00;100621.03;7387846;19;20033;-57
2022/12/07 04:28:57;;;;;;;1.83;1.10;;;;;;;4.79;100.00;100622.69;7390901;19;20022;-58
2022/12/07 04:31:23;;;;;;;1.27;1.13;;;;;;;4.56;100.00;100617.94;7388510;19;20011;-58
2022/12/07 04:33:49;;;;;;;4.25;1.35;;;;;;;4.95;100.00;100618.13;7388220;19;20007;-61
2022/12/07 04:36:16;;;;;;;0.47;0.47;;;;;;;4.58;100.00;100610.81;7387000;19;20013;-57
2022/12/07 04:38:42;;;;;;;0.30;0.30;;;;;;;4.89;100.00;100608.75;7388313;19;20011;-57
2022/12/07 04:41:09;;;;;;;1.10;1.10;;;;;;;4.05;100.00;100610.72;7393007;19;20798;-58
2022/12/07 04:43:35;;;;;;;5.82;2.00;;;;;;;5.10;100.00;100610.38;7394694;19;20074;-56
2022/12/07 04:46:02;;;;;;;0.88;0.63;;;;;;;4.65;100.00;100614.66;7394963;19;20021;-57
2022/12/07 04:48:29;;;;;;;1.05;0.80;;;;;;;4.38;100.00;100604.38;7394239;19;20098;-57
2022/12/07 04:50:55;;;;;;;2.78;1.38;;;;;;;4.29;100.00;100604.09;7394711;19;20011;-57
2022/12/07 04:53:22;;;;;;;1.90;1.60;;;;;;;4.11;100.00;100602.78;7393920;19;20014;-57
2022/12/07 04:55:48;;;;;;;0.25;0.25;;;;;;;4.14;100.00;100608.25;7394696;19;20042;-57
2022/12/07 04:58:14;;;;;;;1.17;1.17;;;;;;;4.80;100.00;100604.97;7394318;19;20490;-57
2022/12/07 05:00:41;;;;;;;0.90;0.90;;;;;;;4.96;100.00;100603.09;7394673;19;20014;-57
2022/12/07 05:03:07;;;;;;;8.77;1.42;;;;;;;4.65;100.00;100601.66;7391637;19;20348;-57
2022/12/07 05:05:33;;;;;;;0.60;0.60;;;;;;;4.94;100.00;100599.97;7394727;19;20347;-57
2022/12/07 05:07:59;;;;;;;1.35;0.80;;;;;;;5.19;100.00;100599.56;7395061;19;20019;-57
2022/12/07 05:10:25;;;;;;;2.05;1.65;;;;;;;4.69;100.00;100604.34;7394935;19;20010;-57
2022/12/07 05:12:51;;;;;;;2.60;2.38;;;;;;;4.63;100.00;100604.78;7394796;19;20018;-57
2022/12/07 05:15:18;;;;;;;0.38;0.28;;;;;;;5.06;100.00;100606.91;7398714;19;20070;-57
2022/12/07 05:17:44;;;;;;;1.27;0.65;;;;;;;5.09;100.00;100606.81;7389881;19;20014;-56
2022/12/07 05:20:10;;;;;;;2.65;1.55;;;;;;;5.31;100.00;100596.19;7393924;19;20007;-56
2022/12/07 05:22:36;;;;;;;0.65;0.65;;;;;;;5.23;100.00;100600.28;7393805;19;20584;-57
2022/12/07 05:25:03;;;;;;;1.15;1.05;;;;;;;5.39;100.00;100603.19;7394587;19;20019;-56
2022/12/07 05:27:29;;;;;;;0.65;0.35;;;;;;;4.36;100.00;100593.00;7395796;19;20003;-57
2022/12/07 05:29:55;;;;;;;1.45;1.35;;;;;;;4.55;100.00;100606.09;7398131;19;20105;-57
2022/12/07 05:32:22;;;;;;;0.85;0.85;;;;;;;4.62;100.00;100594.19;7393043;19;20023;-57
2022/12/07 05:34:48;;;;;;;2.08;1.30;;;;;;;4.63;100.00;100600.50;7391433;19;20070;-56
2022/12/07 05:37:14;;;;;;;0.47;0.47;;;;;;;5.40;100.00;100593.66;7389257;19;20015;-57
2022/12/07 05:39:42;;;;;;;1.17;0.80;;;;;;;5.08;100.00;100588.72;7397231;19;20037;-57
2022/12/07 05:42:13;;;;;;;1.95;1.08;;;;;;;4.90;100.00;100590.19;7393451;19;20007;-57
2022/12/07 05:44:45;;;;;;;2.75;1.33;;;;;;;4.42;100.00;100585.81;7392613;19;20706;-57
2022/12/07 05:47:13;;;;;;;2.00;1.17;;;;;;;4.17;100.00;100596.41;7392305;19;20010;-57
2022/12/07 05:49:39;;;;;;;0.45;0.45;;;;;;;3.83;100.00;100581.88;7396575;19;20402;-57
2022/12/07 05:52:05;;;;;;;0.77;0.77;;;;;;;3.56;100.00;100594.78;7392347;19;20011;-57
2022/12/07 05:54:32;;;;;;;0.25;0.25;;;;;;;3.72;100.00;100592.25;7391522;19;20069;-57
2022/12/07 05:56:58;;;;;;;8.90;1.35;;;;;;;3.51;100.00;100587.75;7391957;19;20015;-57
2022/12/07 05:59:25;;;;;;;0.45;0.45;;;;;;;4.08;100.00;100587.88;7395562;19;20015;-57
2022/12/07 06:02:01;;;;;;;0.65;0.65;;;;;;;3.32;100.00;100593.06;7391941;19;20670;-57
2022/12/07 06:04:31;;;;;;;0.57;0.57;;;;;;;3.04;100.00;100591.38;7391956;19;20025;-57
2022/12/07 06:06:57;;;;;;;25.50;1.75;;;;;;;2.97;100.00;100594.16;7392208;19;20011;-57
2022/12/07 06:09:26;;;;;;;1.95;1.15;;;;;;;3.25;100.00;100593.16;7395440;19;20014;-57
2022/12/07 06:14:39;;;;;;;1.40;1.40;;;;;;;2.91;100.00;100593.03;7392053;19;20368;-57
2022/12/07 06:17:05;;;;;;;0.73;0.73;;;;;;;3.20;100.00;100590.84;7390367;19;20031;-57
2022/12/07 06:19:31;;;;;;;0.80;0.80;;;;;;;3.13;100.00;100593.63;7396344;19;20343;-57
2022/12/07 06:21:57;;;;;;;0.75;0.75;;;;;;;2.80;100.00;100593.13;7391056;19;20033;-57
2022/12/07 06:24:24;;;;;;;1.33;1.20;;;;;;;2.90;100.00;100597.75;7392639;19;20017;-57
2022/12/07 06:26:50;;;;;;;1.27;1.17;;;;;;;2.62;100.00;100597.97;7390675;19;20014;-56
2022/12/07 06:29:17;;;;;;;1.17;0.70;;;;;;;2.90;100.00;100592.25;7394534;19;20014;-56
2022/12/07 06:31:43;;;;;;;1.65;0.95;;;;;;;2.98;100.00;100604.78;7391851;19;20007;-57
2022/12/07 06:34:15;;;;;;;1.05;0.95;;;;;;;3.21;100.00;100595.13;7390948;19;20017;-57
2022/12/07 06:36:41;;;;;;;0.77;0.77;;;;;;;1.97;100.00;100600.72;7391022;19;20472;-57
2022/12/07 06:39:08;;;;;;;1.33;1.10;;;;;;;2.01;100.00;100590.50;7393563;19;20011;-57
2022/12/07 06:41:39;;;;;;;0.30;0.30;;;;;;;2.61;100.00;100598.38;7391303;19;20025;-56
2022/12/07 06:44:06;;;;;;;0.88;0.88;;;;;;;2.93;100.00;100585.16;7394542;19;20445;-57
2022/12/07 06:46:32;;;;;;;1.05;1.00;;;;;;;3.55;100.00;100587.72;7391221;19;20489;-57
2022/12/07 06:48:59;;;;;;;0.32;0.32;;;;;;;3.40;100.00;100586.31;7393181;19;20007;-56
2022/12/07 06:51:25;;;;;;;1.33;1.25;;;;;;;3.30;100.00;100587.19;7391165;19;20011;-56
2022/12/07 06:53:51;;;;;;;2.03;1.92;;;;;;;3.28;100.00;100581.31;7390117;19;20082;-56
2022/12/07 06:56:18;;;;;;;9.32;2.17;;;;;;;3.15;100.00;100585.75;7390951;19;20483;-56
2022/12/07 06:58:44;;;;;;;0.93;0.88;;;;;;;4.01;100.00;100582.44;7395196;19;20013;-56
2022/12/07 07:01:11;;;;;;;3.28;0.90;;;;;;;3.36;100.00;100580.03;7391159;19;20010;-56
2022/12/07 07:03:38;;;;;;;5.28;3.83;;;;;;;3.40;100.00;100592.56;7389090;19;20442;-56
2022/12/07 07:06:05;;;;;;;1.17;1.15;;;;;;;4.74;100.00;100581.81;7389659;19;20103;-56
2022/12/07 07:08:31;;;;;;;1.45;1.35;;;;;;;4.50;100.00;100581.75;7391956;19;20470;-56
2022/12/07 07:10:58;;;;;;;1.85;0.77;;;;;;;5.77;100.00;100579.53;7390249;19;20070;-56
2022/12/07 07:13:24;;;;;;;1.58;1.48;;;;;;;4.72;100.00;100581.44;7390935;19;20018;-56
2022/12/07 07:15:50;;;;;;;4.40;1.48;;;;;;;3.90;100.00;100587.28;7390818;19;20014;-56
2022/12/07 07:18:16;;;;;;;16.27;4.32;;;;;;;4.08;100.00;100576.06;7390102;19;20354;-56
2022/12/07 07:20:42;;;;;;;1.35;1.20;;;;;;;3.84;100.00;100580.69;7392789;19;20022;-56
2022/12/07 07:23:09;;;;;;;1.08;1.08;;;;;;;4.69;100.00;100577.53;7391597;19;20015;-56
2022/12/07 07:25:35;;;;;;;4.10;2.10;;;;;;;5.20;100.00;100576.28;7392963;19;20011;-56
2022/12/07 07:28:02;;;;;;;2.55;1.83;;;;;;;5.09;100.00;100576.47;7395523;19;20435;-59
2022/12/07 07:30:28;;;;;;;2.42;1.48;;;;;;;4.68;100.00;100578.72;7390018;19;20466;-59
2022/12/07 07:32:59;;;;;;;3.60;3.25;;;;;;;4.30;100.00;100578.13;7390764;19;20327;-58
2022/12/07 07:35:27;;;;;;;9.02;2.00;;;;;;;4.62;100.00;100577.63;7390488;19;20710;-58
2022/12/07 07:37:54;;;;;;;16.20;1.95;;;;;;;4.81;100.00;100581.69;7388863;19;20045;-58
2022/12/07 07:40:20;;;;;;;1.88;1.13;;;;;;;5.30;100.00;100573.34;7389625;19;20018;-59
2022/12/07 07:42:48;;;;;;;5.22;2.50;;;;;;;5.16;100.00;100578.31;7388768;19;20533;-59
2022/12/07 07:45:15;;;;;;;1.25;1.25;;;;;;;4.33;100.00;100569.00;7388319;19;20003;-59
2022/12/07 07:47:41;;;;;;;4.38;1.95;;;;;;;4.70;100.00;100567.28;7391494;19;20469;-56
2022/12/07 07:50:07;;;;;;;4.05;2.83;;;;;;;3.95;100.00;100577.78;7390018;19;20010;-56
2022/12/07 07:52:33;;;;;;;10.30;2.25;;;;;;;3.58;100.00;100586.88;7389498;19;20530;-56
2022/12/07 07:55:00;;;;;;;6.82;1.55;;;;;;;3.49;100.00;100583.84;7389849;19;20037;-56
2022/12/07 07:57:27;;;;;;;6.07;1.70;;;;;;;3.35;100.00;100586.75;7389759;19;20066;-56
2022/12/07 07:59:53;;;;;;;1.45;1.35;;;;;;;3.52;100.00;100581.06;7393101;19;20011;-56
2022/12/07 08:02:21;;;;;;;3.25;2.38;;;;;;;4.66;100.00;100574.84;7387429;19;20011;-56
2022/12/07 08:04:48;;;;;;;3.97;2.10;;;;;;;5.46;100.00;100572.63;7387780;19;20010;-56
2022/12/07 08:07:15;;;;;;;1.15;0.85;;;;;;;5.88;100.00;100563.56;7388956;19;20017;-56
2022/12/07 08:09:41;;;;;;;4.07;1.50;;;;;;;6.20;99.05;100564.84;7393343;19;20028;-56
2022/12/07 08:12:09;;;;;;;2.35;2.17;;;;;;;4.85;100.00;100566.63;7388949;19;20011;-59
2022/12/07 08:14:35;;;;;;;1.58;1.42;;;;;;;4.58;100.00;100561.16;7392897;19;20011;-59
2022/12/07 08:17:01;;;;;;;2.10;1.45;;;;;;;5.09;100.00;100570.19;7394920;19;20013;-59
2022/12/07 08:19:28;;;;;;;2.60;2.30;;;;;;;5.88;100.00;100562.78;7400130;19;20070;-56
2022/12/07 08:21:55;;;;;;;1.75;1.33;;;;;;;6.22;98.97;100565.19;7393085;19;20013;-56
2022/12/07 08:24:22;;;;;;;3.15;2.95;;;;;;;6.03;98.90;100564.81;7396392;19;20457;-56
2022/12/07 08:26:49;;;;;;;5.05;1.38;;;;;;;6.15;97.90;100559.84;7396361;19;20366;-56
2022/12/07 08:29:16;;;;;;;0.90;0.90;;;;;;;4.51;100.00;100561.25;7399235;19;20454;-56
2022/12/07 08:31:42;;;;;;;1.33;1.33;;;;;;;4.39;100.00;100569.31;7395773;19;20013;-55
2022/12/07 08:34:10;;;;;;;10.32;2.97;;;;;;;2.90;100.00;100569.50;7395579;19;20082;-56
2022/12/07 08:36:37;;;;;;;4.63;1.58;;;;;;;3.28;100.00;100573.06;7394492;19;20037;-56
2022/12/07 08:39:03;;;;;;;9.05;1.88;;;;;;;4.43;100.00;100570.84;7395105;19;20023;-56
2022/12/07 08:41:29;;;;;;;11.40;4.20;;;;;;;4.52;100.00;100571.09;7393825;19;20010;-56
2022/12/07 08:43:56;;;;;;;14.57;5.50;;;;;;;4.19;100.00;100571.97;7394787;19;20017;-56
2022/12/07 08:46:30;;;;;;;29.02;4.07;;;;;;;4.60;100.00;100580.81;7395383;19;20025;-56
2022/12/07 08:49:01;;;;;;;10.20;2.88;;;;;;;4.82;100.00;100586.78;7396744;19;20349;-56
2022/12/07 08:51:28;;;;;;;3.85;2.90;;;;;;;4.66;100.00;100588.63;7395054;19;20031;-56
2022/12/07 08:53:55;;;;;;;3.90;1.77;;;;;;;4.75;100.00;100580.59;7395369;19;20015;-56
2022/12/07 08:56:22;;;;;;;10.25;2.80;;;;;;;4.81;100.00;100573.41;7394394;19;20013;-56
2022/12/07 08:58:48;;;;;;;1.20;1.10;;;;;;;5.24;100.00;100574.25;7395546;19;20021;-56
2022/12/07 09:01:15;;;;;;;12.45;2.17;;;;;;;6.02;100.00;100571.53;7395212;19;20029;-58
2022/12/07 09:03:41;;;;;;;1.60;1.48;;;;;;;6.71;100.00;100569.63;7395190;19;20532;-58
2022/12/07 09:06:07;;;;;;;1.48;1.10;;;;;;;6.43;100.00;100571.03;7394786;19;20021;-60
2022/12/07 09:08:42;;;;;;;8.88;2.50;;;;;;;5.52;100.00;100570.19;7396465;19;20459;-59
2022/12/07 09:11:08;;;;;;;4.60;2.15;;;;;;;5.47;100.00;100571.44;7394250;19;20517;-59
2022/12/07 09:13:34;;;;;;;5.35;2.60;;;;;;;6.07;100.00;100576.56;7394139;19;20643;-59
2022/12/07 09:16:01;;;;;;;3.33;2.28;;;;;;;5.93;100.00;100568.56;7393901;19;20010;-58
2022/12/07 09:18:27;;;;;;;0.88;0.85;;;;;;;6.03;100.00;100559.28;7392442;19;20011;-58
2022/12/07 09:20:53;;;;;;;5.22;3.20;;;;;;;5.92;100.00;100564.25;7393452;19;20010;-58
2022/12/07 09:23:19;;;;;;;0.93;0.93;;;;;;;5.96;100.00;100559.44;7393341;19;20014;-58
2022/12/07 09:25:45;;;;;;;12.15;4.75;;;;;;;5.96;100.00;100564.97;7391372;19;20027;-59
2022/12/07 09:28:11;;;;;;;4.30;1.50;;;;;;;6.24;100.00;100568.34;7397704;19;20007;-59
2022/12/07 09:30:38;;;;;;;11.90;2.22;;;;;;;6.22;99.59;100565.19;7393457;19;20018;-56
2022/12/07 09:33:04;;;;;;;3.38;2.50;;;;;;;6.56;97.94;100562.84;7392703;19;20017;-56
2022/12/07 09:35:30;;;;;;;2.38;2.08;;;;;;;6.88;96.24;100562.88;7391770;19;20011;-56
2022/12/07 09:37:56;;;;;;;8.18;2.35;;;;;;;6.52;95.02;100553.88;7390443;19;20011;-56
2022/12/07 09:40:24;;;;;;;2.72;2.13;;;;;;;5.91;99.76;100557.16;7392741;19;20011;-56
2022/12/07 09:42:54;;;;;;;13.38;2.40;;;;;;;6.62;97.23;100555.59;7393053;19;20010;-56
2022/12/07 09:45:32;;;;;;;3.45;2.47;;;;;;;6.58;95.92;100543.84;7390442;19;20022;-56
2022/12/07 09:47:59;;;;;;;4.78;1.33;;;;;;;6.08;97.54;100544.97;7393497;19;20331;-56
2022/12/07 09:50:28;;;;;;;2.17;1.90;;;;;;;6.05;99.76;100545.03;7392245;19;20019;-56
2022/12/07 09:53:03;;;;;;;13.02;3.50;;;;;;;5.91;100.00;100543.34;7392325;19;20031;-56
2022/12/07 09:55:31;;;;;;;14.70;1.73;;;;;;;6.34;99.79;100547.94;7392445;19;20021;-56
2022/12/07 09:57:58;;;;;;;5.00;2.15;;;;;;;6.45;97.93;100540.19;7393215;19;20365;-56
2022/12/07 10:00:25;;;;;;;2.97;1.35;;;;;;;6.91;96.84;100541.84;7393404;19;20025;-56
2022/12/07 10:03:01;;;;;;;8.15;4.00;;;;;;;6.46;98.11;100547.25;7392012;19;20466;-56
2022/12/07 10:05:35;;;;;;;4.47;2.28;;;;;;;7.04;95.72;100546.22;7392992;19;20015;-56
2022/12/07 10:08:01;;;;;;;9.05;1.73;;;;;;;7.40;93.02;100549.63;7393906;19;20464;-56
2022/12/07 10:10:32;;;;;;;5.95;2.80;;;;;;;5.54;100.00;100549.22;7392625;19;20022;-56
2022/12/07 10:13:01;;;;;;;8.43;1.55;;;;;;;6.43;99.71;100548.91;7391506;19;20037;-56
2022/12/07 10:15:49;;;;;;;9.30;1.75;;;;;;;6.45;99.15;100540.19;7396380;19;20014;-56
2022/12/07 10:18:20;;;;;;;1.17;1.17;;;;;;;6.26;100.00;100539.03;7392418;19;20464;-56
2022/12/07 10:20:48;;;;;;;2.55;1.67;;;;;;;6.51;100.00;100538.47;7392333;19;20021;-56
2022/12/07 10:23:17;;;;;;;10.55;1.98;;;;;;;6.29;100.00;100538.19;7392933;19;20021;-57
2022/12/07 10:25:44;;;;;;;1.52;0.80;;;;;;;6.23;100.00;100539.91;7390918;19;20565;-56
2022/12/07 10:28:15;;;;;;;1.60;1.50;;;;;;;6.83;100.00;100542.00;7394229;19;20039;-56
2022/12/07 10:30:58;;;;;;;7.13;3.08;;;;;;;7.28;97.05;100533.72;7391868;19;20015;-56
2022/12/07 10:33:36;;;;;;;3.55;3.25;;;;;;;6.73;98.35;100539.50;7391325;19;20010;-56
2022/12/07 10:36:31;;;;;;;4.20;3.30;;;;;;;6.67;100.00;100544.78;7392583;19;20098;-56
2022/12/07 10:39:14;;;;;;;3.60;2.03;;;;;;;7.79;96.50;100522.81;7391567;19;20010;-56
2022/12/07 10:41:55;;;;;;;2.47;1.83;;;;;;;7.59;95.84;100532.06;7391129;19;20037;-56
2022/12/07 10:44:32;;;;;;;3.35;1.60;;;;;;;7.13;98.28;100529.78;7390702;19;20015;-56
2022/12/07 10:47:18;;;;;;;6.88;2.63;;;;;;;7.27;98.41;100542.47;7391674;19;20007;-56
2022/12/07 10:50:06;;;;;;;4.30;2.22;;;;;;;6.79;100.00;100527.50;7392614;19;20030;-56
2022/12/07 10:52:38;;;;;;;2.70;0.77;;;;;;;6.52;100.00;100528.97;7390757;19;20014;-56
2022/12/07 10:55:32;;;;;;;4.78;1.58;;;;;;;8.56;97.66;100525.22;7391228;19;20006;-56
2022/12/07 10:58:26;;;;;;;2.33;2.13;;;;;;;8.10;95.30;100523.88;7390922;19;20014;-56
2022/12/07 11:00:55;;;;;;;2.35;1.00;;;;;;;7.78;98.70;100522.03;7389657;19;20392;-56
2022/12/07 11:03:48;;;;;;;12.75;2.17;;;;;;;7.81;98.21;100512.84;7391627;19;20345;-57
2022/12/07 11:06:30;;;;;;;2.47;1.45;;;;;;;7.30;100.00;100519.41;7391509;19;20028;-57
2022/12/07 11:08:56;;;;;;;1.42;1.35;;;;;;;7.35;100.00;100519.69;7393237;19;20065;-56
2022/12/07 11:11:34;;;;;;;0.82;0.82;;;;;;;7.62;100.00;100511.78;7390631;19;20022;-56
2022/12/07 11:14:03;;;;;;;1.45;1.02;;;;;;;7.16;100.00;100505.97;7391106;19;20010;-56
2022/12/07 11:16:44;;;;;;;3.22;1.33;;;;;;;6.30;100.00;100511.31;7389787;19;20010;-56
2022/12/07 11:19:32;;;;;;;3.45;1.85;;;;;;;5.47;100.00;100505.16;7392080;19;20785;-56
2022/12/07 11:22:05;;;;;;;2.75;2.50;;;;;;;5.92;100.00;100492.38;7390389;19;20521;-56
2022/12/07 11:24:39;;;;;;;3.35;1.58;;;;;;;6.07;100.00;100490.88;7390484;19;20033;-56
2022/12/07 11:27:21;;;;;;;2.53;1.75;;;;;;;6.68;100.00;100476.38;7390114;19;20010;-56
2022/12/07 11:29:58;;;;;;;3.13;2.20;;;;;;;7.22;100.00;100480.06;7393712;19;20018;-56
2022/12/07 11:32:30;;;;;;;4.07;1.23;;;;;;;6.75;100.00;100481.72;7389639;19;20102;-56
2022/12/07 11:35:15;;;;;;;1.35;0.93;;;;;;;7.07;100.00;100470.59;7389768;19;20011;-56
2022/12/07 11:37:41;;;;;;;2.72;1.90;;;;;;;7.33;100.00;100466.72;7386892;19;20011;-56
2022/12/07 11:40:36;;;;;;;7.63;1.58;;;;;;;8.30;100.00;100463.41;7388378;19;20038;-57
2022/12/07 11:43:13;;;;;;;4.70;1.58;;;;;;;7.85;100.00;100458.06;7388810;19;20015;-56
2022/12/07 11:45:43;;;;;;;15.73;0.88;;;;;;;5.53;100.00;100456.50;7388538;19;20011;-57